sensor_id;sensor_type;location;lat;lon;timestamp;temperature;humidity
12957;DHT22;6543;48.836;10.092;2023-05-10T00:00:24;13.40;99.90
12957;DHT22;6543;48.836;10.092;2023-05-10T00:02:51;13.20;99.90
12957;DHT22;6543;48.836;10.092;2023-05-10T00:05:18;13.10;99.90
12957;DHT22;6543;48.836;10.092;2023-05-10T00:07:46;13.10;99.90
12957;DHT22;6543;48.836;10.092;2023-05-10T00:10:13;13.10;99.90
12957;DHT22;6543;48.836;10.092;2023-05-10T00:12:40;13.10;99.90
12957;DHT22;6543;48.836;10.092;2023-05-10T00:15:08;13.10;99.90
12957;DHT22;6543;48.836;10.092;2023-05-10T00:17:35;13.10;99.90
12957;DHT22;6543;48.836;10.092;2023-05-10T00:20:02;14.20;99.90
12957;DHT22;6543;48.836;10.092;2023-05-10T00:22:30;13.10;99.90
12957;DHT22;6543;48.836;10.092;2023-05-10T00:24:59;13.30;99.90
12957;DHT22;6543;48.836;10.092;2023-05-10T00:27:26;13.10;99.90
12957;DHT22;6543;48.836;10.092;2023-05-10T00:29:52;13.10;99.90
12957;DHT22;6543;48.836;10.092;2023-05-10T00:32:19;14.60;99.90
12957;DHT22;6543;48.836;10.092;2023-05-10T00:34:46;13.20;99.90
12957;DHT22;6543;48.836;10.092;2023-05-10T00:37:13;13.10;99.90
12957;DHT22;6543;48.836;10.092;2023-05-10T00:39:40;15.00;99.90
12957;DHT22;6543;48.836;10.092;2023-05-10T00:42:08;14.90;99.90
12957;DHT22;6543;48.836;10.092;2023-05-10T00:44:35;13.10;99.90
12957;DHT22;6543;48.836;10.092;2023-05-10T00:47:02;13.10;99.90
12957;DHT22;6543;48.836;10.092;2023-05-10T00:49:29;13.10;99.90
12957;DHT22;6543;48.836;10.092;2023-05-10T00:51:56;13.10;99.90
12957;DHT22;6543;48.836;10.092;2023-05-10T00:54:24;13.80;99.90
12957;DHT22;6543;48.836;10.092;2023-05-10T00:56:51;13.00;99.90
12957;DHT22;6543;48.836;10.092;2023-05-10T00:59:20;13.00;99.90
12957;DHT22;6543;48.836;10.092;2023-05-10T01:01:47;13.00;99.90
12957;DHT22;6543;48.836;10.092;2023-05-10T01:04:14;13.00;99.90
12957;DHT22;6543;48.836;10.092;2023-05-10T01:06:42;12.90;99.90
12957;DHT22;6543;48.836;10.092;2023-05-10T01:09:09;12.90;99.90
12957;DHT22;6543;48.836;10.092;2023-05-10T01:11:38;14.60;99.90
12957;DHT22;6543;48.836;10.092;2023-05-10T01:14:06;12.90;99.90
12957;DHT22;6543;48.836;10.092;2023-05-10T01:16:37;12.90;99.90
12957;DHT22;6543;48.836;10.092;2023-05-10T01:19:05;13.80;99.90
12957;DHT22;6543;48.836;10.092;2023-05-10T01:21:38;12.90;99.90
12957;DHT22;6543;48.836;10.092;2023-05-10T01:30:42;12.80;99.90
12957;DHT22;6543;48.836;10.092;2023-05-10T01:33:18;12.90;99.90
12957;DHT22;6543;48.836;10.092;2023-05-10T01:35:51;13.40;99.90
12957;DHT22;6543;48.836;10.092;2023-05-10T01:38:27;13.70;99.90
12957;DHT22;6543;48.836;10.092;2023-05-10T01:41:01;12.70;99.90
12957;DHT22;6543;48.836;10.092;2023-05-10T01:43:48;13.90;99.90
12957;DHT22;6543;48.836;10.092;2023-05-10T01:46:28;12.70;99.90
12957;DHT22;6543;48.836;10.092;2023-05-10T01:48:58;12.60;99.90
12957;DHT22;6543;48.836;10.092;2023-05-10T01:51:30;12.50;99.90
12957;DHT22;6543;48.836;10.092;2023-05-10T01:54:01;12.40;99.90
12957;DHT22;6543;48.836;10.092;2023-05-10T01:56:30;12.30;99.90
12957;DHT22;6543;48.836;10.092;2023-05-10T01:59:00;13.50;99.90
12957;DHT22;6543;48.836;10.092;2023-05-10T02:01:28;12.20;99.90
12957;DHT22;6543;48.836;10.092;2023-05-10T02:03:57;14.30;99.90
12957;DHT22;6543;48.836;10.092;2023-05-10T02:06:25;12.20;99.90
12957;DHT22;6543;48.836;10.092;2023-05-10T02:08:53;12.20;99.90
12957;DHT22;6543;48.836;10.092;2023-05-10T02:11:21;12.10;99.90
12957;DHT22;6543;48.836;10.092;2023-05-10T02:13:50;12.10;99.90
12957;DHT22;6543;48.836;10.092;2023-05-10T02:16:18;12.10;99.90
12957;DHT22;6543;48.836;10.092;2023-05-10T02:18:51;12.00;99.90
12957;DHT22;6543;48.836;10.092;2023-05-10T02:21:20;12.00;99.90
12957;DHT22;6543;48.836;10.092;2023-05-10T02:23:49;11.90;99.90
12957;DHT22;6543;48.836;10.092;2023-05-10T02:26:18;11.90;99.90
12957;DHT22;6543;48.836;10.092;2023-05-10T02:28:47;12.70;99.90
12957;DHT22;6543;48.836;10.092;2023-05-10T02:31:16;12.60;99.90
12957;DHT22;6543;48.836;10.092;2023-05-10T02:33:44;12.80;99.90
12957;DHT22;6543;48.836;10.092;2023-05-10T02:36:13;11.90;99.90
12957;DHT22;6543;48.836;10.092;2023-05-10T02:38:41;11.90;99.90
12957;DHT22;6543;48.836;10.092;2023-05-10T02:41:09;12.30;99.90
12957;DHT22;6543;48.836;10.092;2023-05-10T02:43:38;11.80;99.90
12957;DHT22;6543;48.836;10.092;2023-05-10T02:46:06;11.80;99.90
12957;DHT22;6543;48.836;10.092;2023-05-10T02:48:33;11.90;99.90
12957;DHT22;6543;48.836;10.092;2023-05-10T02:51:03;13.20;99.90
12957;DHT22;6543;48.836;10.092;2023-05-10T02:53:33;11.80;99.90
12957;DHT22;6543;48.836;10.092;2023-05-10T02:56:08;12.80;99.90
12957;DHT22;6543;48.836;10.092;2023-05-10T02:58:38;11.80;99.90
12957;DHT22;6543;48.836;10.092;2023-05-10T03:01:05;11.80;99.90
12957;DHT22;6543;48.836;10.092;2023-05-10T03:03:33;11.80;99.90
12957;DHT22;6543;48.836;10.092;2023-05-10T03:06:00;12.20;99.90
12957;DHT22;6543;48.836;10.092;2023-05-10T03:08:27;11.70;99.90
12957;DHT22;6543;48.836;10.092;2023-05-10T03:11:08;11.80;99.90
12957;DHT22;6543;48.836;10.092;2023-05-10T03:13:46;11.70;99.90
12957;DHT22;6543;48.836;10.092;2023-05-10T03:16:16;11.70;99.90
12957;DHT22;6543;48.836;10.092;2023-05-10T03:18:54;11.70;99.90
12957;DHT22;6543;48.836;10.092;2023-05-10T03:21:26;12.90;99.90
12957;DHT22;6543;48.836;10.092;2023-05-10T03:23:59;12.40;99.90
12957;DHT22;6543;48.836;10.092;2023-05-10T03:26:28;11.70;99.90
12957;DHT22;6543;48.836;10.092;2023-05-10T03:28:56;11.60;99.90
12957;DHT22;6543;48.836;10.092;2023-05-10T03:31:24;11.70;99.90
12957;DHT22;6543;48.836;10.092;2023-05-10T03:33:52;11.70;99.90
12957;DHT22;6543;48.836;10.092;2023-05-10T03:36:19;11.70;99.90
12957;DHT22;6543;48.836;10.092;2023-05-10T03:38:46;11.70;99.90
12957;DHT22;6543;48.836;10.092;2023-05-10T03:41:13;12.30;99.90
12957;DHT22;6543;48.836;10.092;2023-05-10T03:43:42;13.10;99.90
12957;DHT22;6543;48.836;10.092;2023-05-10T03:46:08;12.80;99.90
12957;DHT22;6543;48.836;10.092;2023-05-10T03:48:35;13.60;99.90
12957;DHT22;6543;48.836;10.092;2023-05-10T03:51:03;13.60;99.90
12957;DHT22;6543;48.836;10.092;2023-05-10T03:53:30;11.70;99.90
12957;DHT22;6543;48.836;10.092;2023-05-10T03:55:57;11.60;99.90
12957;DHT22;6543;48.836;10.092;2023-05-10T03:58:23;11.60;99.90
12957;DHT22;6543;48.836;10.092;2023-05-10T04:00:52;11.60;99.90
12957;DHT22;6543;48.836;10.092;2023-05-10T04:03:19;11.90;99.90
12957;DHT22;6543;48.836;10.092;2023-05-10T04:05:46;11.60;99.90
12957;DHT22;6543;48.836;10.092;2023-05-10T04:08:13;12.90;99.90
12957;DHT22;6543;48.836;10.092;2023-05-10T04:10:41;12.00;99.90
12957;DHT22;6543;48.836;10.092;2023-05-10T04:13:08;11.60;99.90
12957;DHT22;6543;48.836;10.092;2023-05-10T04:15:36;11.60;99.90
12957;DHT22;6543;48.836;10.092;2023-05-10T04:18:05;11.80;99.90
12957;DHT22;6543;48.836;10.092;2023-05-10T04:20:32;13.60;99.90
12957;DHT22;6543;48.836;10.092;2023-05-10T04:22:59;10.60;99.90
12957;DHT22;6543;48.836;10.092;2023-05-10T04:25:26;11.70;99.90
12957;DHT22;6543;48.836;10.092;2023-05-10T04:27:53;11.80;99.90
12957;DHT22;6543;48.836;10.092;2023-05-10T04:30:20;13.60;99.90
12957;DHT22;6543;48.836;10.092;2023-05-10T04:32:48;11.70;99.90
12957;DHT22;6543;48.836;10.092;2023-05-10T04:35:17;11.80;99.90
12957;DHT22;6543;48.836;10.092;2023-05-10T04:37:45;11.80;99.90
12957;DHT22;6543;48.836;10.092;2023-05-10T04:40:12;12.30;99.90
12957;DHT22;6543;48.836;10.092;2023-05-10T04:42:40;11.90;99.90
12957;DHT22;6543;48.836;10.092;2023-05-10T04:45:08;12.10;99.90
12957;DHT22;6543;48.836;10.092;2023-05-10T04:47:36;12.00;99.90
12957;DHT22;6543;48.836;10.092;2023-05-10T04:50:04;12.00;99.90
12957;DHT22;6543;48.836;10.092;2023-05-10T04:52:33;11.10;99.90
12957;DHT22;6543;48.836;10.092;2023-05-10T04:55:02;12.00;99.90
12957;DHT22;6543;48.836;10.092;2023-05-10T04:57:29;12.00;99.90
12957;DHT22;6543;48.836;10.092;2023-05-10T04:59:56;11.90;99.90
12957;DHT22;6543;48.836;10.092;2023-05-10T05:02:25;11.90;99.90
12957;DHT22;6543;48.836;10.092;2023-05-10T05:04:52;13.60;99.90
12957;DHT22;6543;48.836;10.092;2023-05-10T05:07:19;12.60;99.90
12957;DHT22;6543;48.836;10.092;2023-05-10T05:09:48;12.10;99.90
12957;DHT22;6543;48.836;10.092;2023-05-10T05:12:16;12.10;99.90
12957;DHT22;6543;48.836;10.092;2023-05-10T05:14:57;12.00;99.90
12957;DHT22;6543;48.836;10.092;2023-05-10T05:17:24;12.10;99.90
12957;DHT22;6543;48.836;10.092;2023-05-10T05:19:52;13.60;99.90
12957;DHT22;6543;48.836;10.092;2023-05-10T05:22:19;12.20;99.90
12957;DHT22;6543;48.836;10.092;2023-05-10T05:24:54;12.10;99.90
12957;DHT22;6543;48.836;10.092;2023-05-10T05:27:20;12.10;99.90
12957;DHT22;6543;48.836;10.092;2023-05-10T05:29:50;12.10;99.90
12957;DHT22;6543;48.836;10.092;2023-05-10T05:32:17;12.10;99.90
12957;DHT22;6543;48.836;10.092;2023-05-10T05:34:44;12.10;99.90
12957;DHT22;6543;48.836;10.092;2023-05-10T05:37:13;12.20;99.90
12957;DHT22;6543;48.836;10.092;2023-05-10T05:39:40;12.30;99.90
12957;DHT22;6543;48.836;10.092;2023-05-10T05:42:08;12.50;99.90
12957;DHT22;6543;48.836;10.092;2023-05-10T05:44:35;12.60;99.90
12957;DHT22;6543;48.836;10.092;2023-05-10T05:47:02;12.80;99.90
12957;DHT22;6543;48.836;10.092;2023-05-10T05:49:29;12.80;99.90
12957;DHT22;6543;48.836;10.092;2023-05-10T05:51:58;12.90;99.90
12957;DHT22;6543;48.836;10.092;2023-05-10T05:54:26;13.00;99.90
12957;DHT22;6543;48.836;10.092;2023-05-10T05:56:54;12.90;99.90
12957;DHT22;6543;48.836;10.092;2023-05-10T05:59:23;12.70;99.90
12957;DHT22;6543;48.836;10.092;2023-05-10T06:01:50;14.80;99.90
12957;DHT22;6543;48.836;10.092;2023-05-10T06:04:18;12.70;99.90
12957;DHT22;6543;48.836;10.092;2023-05-10T06:06:45;12.70;99.90
12957;DHT22;6543;48.836;10.092;2023-05-10T06:09:12;12.70;99.90
12957;DHT22;6543;48.836;10.092;2023-05-10T06:11:39;12.70;99.90
12957;DHT22;6543;48.836;10.092;2023-05-10T06:14:06;12.80;99.90
12957;DHT22;6543;48.836;10.092;2023-05-10T06:16:34;12.80;99.90
12957;DHT22;6543;48.836;10.092;2023-05-10T06:19:01;12.80;99.90
12957;DHT22;6543;48.836;10.092;2023-05-10T06:21:28;12.40;99.90
12957;DHT22;6543;48.836;10.092;2023-05-10T06:23:55;12.60;99.90
12957;DHT22;6543;48.836;10.092;2023-05-10T06:26:22;12.60;99.90
12957;DHT22;6543;48.836;10.092;2023-05-10T06:28:49;12.80;99.90
12957;DHT22;6543;48.836;10.092;2023-05-10T06:31:16;12.90;99.90
12957;DHT22;6543;48.836;10.092;2023-05-10T06:33:44;13.10;99.90
12957;DHT22;6543;48.836;10.092;2023-05-10T06:36:11;13.10;99.90
12957;DHT22;6543;48.836;10.092;2023-05-10T06:38:39;13.10;99.90
12957;DHT22;6543;48.836;10.092;2023-05-10T06:41:06;13.10;99.90
12957;DHT22;6543;48.836;10.092;2023-05-10T06:43:33;13.40;99.90
12957;DHT22;6543;48.836;10.092;2023-05-10T06:46:00;13.20;99.90
12957;DHT22;6543;48.836;10.092;2023-05-10T06:48:27;13.20;99.90
12957;DHT22;6543;48.836;10.092;2023-05-10T06:50:55;13.40;99.90
12957;DHT22;6543;48.836;10.092;2023-05-10T06:53:22;13.30;99.90
12957;DHT22;6543;48.836;10.092;2023-05-10T06:55:49;13.30;99.90
12957;DHT22;6543;48.836;10.092;2023-05-10T06:58:16;13.30;99.90
12957;DHT22;6543;48.836;10.092;2023-05-10T07:00:43;13.30;99.90
12957;DHT22;6543;48.836;10.092;2023-05-10T07:03:10;13.30;99.90
12957;DHT22;6543;48.836;10.092;2023-05-10T07:05:38;13.70;99.90
12957;DHT22;6543;48.836;10.092;2023-05-10T07:08:09;13.60;99.90
12957;DHT22;6543;48.836;10.092;2023-05-10T07:10:36;13.60;99.90
12957;DHT22;6543;48.836;10.092;2023-05-10T07:13:03;13.60;99.90
12957;DHT22;6543;48.836;10.092;2023-05-10T07:15:30;13.60;99.90
12957;DHT22;6543;48.836;10.092;2023-05-10T07:17:57;13.60;99.90
12957;DHT22;6543;48.836;10.092;2023-05-10T07:20:24;13.50;99.90
12957;DHT22;6543;48.836;10.092;2023-05-10T07:22:50;13.50;99.90
12957;DHT22;6543;48.836;10.092;2023-05-10T07:25:19;13.60;99.90
12957;DHT22;6543;48.836;10.092;2023-05-10T07:27:46;13.50;99.90
12957;DHT22;6543;48.836;10.092;2023-05-10T07:30:14;13.70;99.90
12957;DHT22;6543;48.836;10.092;2023-05-10T07:32:41;13.60;99.90
12957;DHT22;6543;48.836;10.092;2023-05-10T07:35:08;13.60;99.90
12957;DHT22;6543;48.836;10.092;2023-05-10T07:37:35;13.80;99.90
12957;DHT22;6543;48.836;10.092;2023-05-10T07:40:02;13.60;99.90
12957;DHT22;6543;48.836;10.092;2023-05-10T07:42:31;13.60;99.90
12957;DHT22;6543;48.836;10.092;2023-05-10T07:44:59;13.50;99.90
12957;DHT22;6543;48.836;10.092;2023-05-10T07:47:25;13.50;99.90
12957;DHT22;6543;48.836;10.092;2023-05-10T07:49:52;13.50;99.90
12957;DHT22;6543;48.836;10.092;2023-05-10T07:52:19;13.50;99.90
12957;DHT22;6543;48.836;10.092;2023-05-10T07:54:46;13.60;99.90
12957;DHT22;6543;48.836;10.092;2023-05-10T07:57:13;13.70;99.90
12957;DHT22;6543;48.836;10.092;2023-05-10T07:59:44;13.90;99.90
12957;DHT22;6543;48.836;10.092;2023-05-10T08:02:11;14.20;99.90
12957;DHT22;6543;48.836;10.092;2023-05-10T08:04:38;14.50;99.90
12957;DHT22;6543;48.836;10.092;2023-05-10T08:07:05;14.50;99.90
12957;DHT22;6543;48.836;10.092;2023-05-10T08:09:32;14.90;99.90
12957;DHT22;6543;48.836;10.092;2023-05-10T08:11:59;15.00;99.90
12957;DHT22;6543;48.836;10.092;2023-05-10T08:14:28;14.90;99.90
12957;DHT22;6543;48.836;10.092;2023-05-10T08:16:57;14.30;99.90
12957;DHT22;6543;48.836;10.092;2023-05-10T08:19:24;14.50;99.90
12957;DHT22;6543;48.836;10.092;2023-05-10T08:21:51;14.00;99.90
12957;DHT22;6543;48.836;10.092;2023-05-10T08:24:18;13.80;99.90
12957;DHT22;6543;48.836;10.092;2023-05-10T08:26:45;13.80;99.90
12957;DHT22;6543;48.836;10.092;2023-05-10T08:29:13;13.90;99.90
12957;DHT22;6543;48.836;10.092;2023-05-10T08:31:40;13.70;99.90
12957;DHT22;6543;48.836;10.092;2023-05-10T08:34:08;13.60;99.90
12957;DHT22;6543;48.836;10.092;2023-05-10T08:36:35;13.40;99.90
12957;DHT22;6543;48.836;10.092;2023-05-10T08:39:03;13.20;99.90
12957;DHT22;6543;48.836;10.092;2023-05-10T08:41:30;13.80;99.90
12957;DHT22;6543;48.836;10.092;2023-05-10T08:44:03;13.20;99.90
12957;DHT22;6543;48.836;10.092;2023-05-10T08:46:31;13.30;99.90
12957;DHT22;6543;48.836;10.092;2023-05-10T08:49:02;13.30;99.90
12957;DHT22;6543;48.836;10.092;2023-05-10T08:51:35;13.60;99.90
12957;DHT22;6543;48.836;10.092;2023-05-10T08:54:03;13.80;99.90
12957;DHT22;6543;48.836;10.092;2023-05-10T08:56:31;14.00;99.90
12957;DHT22;6543;48.836;10.092;2023-05-10T08:58:59;14.10;99.90
12957;DHT22;6543;48.836;10.092;2023-05-10T09:01:28;14.50;99.90
12957;DHT22;6543;48.836;10.092;2023-05-10T09:03:58;14.60;99.90
12957;DHT22;6543;48.836;10.092;2023-05-10T09:06:25;15.00;99.90
12957;DHT22;6543;48.836;10.092;2023-05-10T09:08:54;14.20;99.90
12957;DHT22;6543;48.836;10.092;2023-05-10T09:11:21;14.80;99.90
12957;DHT22;6543;48.836;10.092;2023-05-10T09:13:50;14.50;99.90
12957;DHT22;6543;48.836;10.092;2023-05-10T09:16:17;13.90;99.90
12957;DHT22;6543;48.836;10.092;2023-05-10T09:18:44;13.40;99.90
12957;DHT22;6543;48.836;10.092;2023-05-10T09:21:11;13.00;99.90
12957;DHT22;6543;48.836;10.092;2023-05-10T09:23:38;13.10;99.90
12957;DHT22;6543;48.836;10.092;2023-05-10T09:26:07;13.00;99.90
12957;DHT22;6543;48.836;10.092;2023-05-10T09:28:50;13.30;99.90
12957;DHT22;6543;48.836;10.092;2023-05-10T09:31:17;13.20;99.90
12957;DHT22;6543;48.836;10.092;2023-05-10T09:33:45;13.60;99.90
12957;DHT22;6543;48.836;10.092;2023-05-10T09:36:13;13.30;99.90
12957;DHT22;6543;48.836;10.092;2023-05-10T09:38:47;13.20;99.90
12957;DHT22;6543;48.836;10.092;2023-05-10T09:41:21;13.20;99.90
12957;DHT22;6543;48.836;10.092;2023-05-10T09:43:48;13.60;99.90
12957;DHT22;6543;48.836;10.092;2023-05-10T09:46:17;14.50;99.90
12957;DHT22;6543;48.836;10.092;2023-05-10T09:48:45;15.00;99.90
12957;DHT22;6543;48.836;10.092;2023-05-10T09:51:19;13.60;99.90
12957;DHT22;6543;48.836;10.092;2023-05-10T09:53:47;13.70;99.90
12957;DHT22;6543;48.836;10.092;2023-05-10T09:56:32;14.10;99.90
12957;DHT22;6543;48.836;10.092;2023-05-10T09:59:03;14.20;99.90
12957;DHT22;6543;48.836;10.092;2023-05-10T10:01:31;14.10;99.90
12957;DHT22;6543;48.836;10.092;2023-05-10T10:03:58;14.50;99.90
12957;DHT22;6543;48.836;10.092;2023-05-10T10:06:26;14.30;99.90
12957;DHT22;6543;48.836;10.092;2023-05-10T10:08:54;14.20;99.90
12957;DHT22;6543;48.836;10.092;2023-05-10T10:11:23;15.40;99.90
12957;DHT22;6543;48.836;10.092;2023-05-10T10:13:53;13.70;99.90
12957;DHT22;6543;48.836;10.092;2023-05-10T10:16:20;13.50;99.90
12957;DHT22;6543;48.836;10.092;2023-05-10T10:18:48;13.50;99.90
12957;DHT22;6543;48.836;10.092;2023-05-10T10:21:15;13.70;99.90
12957;DHT22;6543;48.836;10.092;2023-05-10T10:23:43;13.70;99.90
12957;DHT22;6543;48.836;10.092;2023-05-10T10:26:10;14.10;99.90
12957;DHT22;6543;48.836;10.092;2023-05-10T10:28:44;14.10;99.90
12957;DHT22;6543;48.836;10.092;2023-05-10T10:31:21;14.10;99.90
12957;DHT22;6543;48.836;10.092;2023-05-10T10:34:00;14.30;99.90
12957;DHT22;6543;48.836;10.092;2023-05-10T10:36:28;14.50;99.90
12957;DHT22;6543;48.836;10.092;2023-05-10T10:39:00;14.40;99.90
12957;DHT22;6543;48.836;10.092;2023-05-10T10:41:32;14.50;99.90
12957;DHT22;6543;48.836;10.092;2023-05-10T10:44:33;15.20;99.90
12957;DHT22;6543;48.836;10.092;2023-05-10T10:47:01;14.90;99.90
12957;DHT22;6543;48.836;10.092;2023-05-10T10:49:31;14.80;99.90
12957;DHT22;6543;48.836;10.092;2023-05-10T10:52:31;15.00;99.90
12957;DHT22;6543;48.836;10.092;2023-05-10T10:55:00;14.80;99.90
12957;DHT22;6543;48.836;10.092;2023-05-10T10:57:29;14.50;99.90
12957;DHT22;6543;48.836;10.092;2023-05-10T11:00:21;14.40;99.90
12957;DHT22;6543;48.836;10.092;2023-05-10T11:02:50;14.20;99.90
12957;DHT22;6543;48.836;10.092;2023-05-10T11:05:35;14.30;99.90
12957;DHT22;6543;48.836;10.092;2023-05-10T11:08:09;14.40;99.90
12957;DHT22;6543;48.836;10.092;2023-05-10T11:10:36;14.60;99.90
12957;DHT22;6543;48.836;10.092;2023-05-10T11:13:04;15.20;99.90
12957;DHT22;6543;48.836;10.092;2023-05-10T11:15:34;15.00;99.90
12957;DHT22;6543;48.836;10.092;2023-05-10T11:18:17;14.90;99.90
12957;DHT22;6543;48.836;10.092;2023-05-10T11:20:50;15.00;99.90
12957;DHT22;6543;48.836;10.092;2023-05-10T11:23:17;14.40;99.90
12957;DHT22;6543;48.836;10.092;2023-05-10T11:25:45;14.70;99.90
12957;DHT22;6543;48.836;10.092;2023-05-10T11:28:13;14.90;99.90
12957;DHT22;6543;48.836;10.092;2023-05-10T11:30:43;15.10;99.90
12957;DHT22;6543;48.836;10.092;2023-05-10T11:33:15;14.90;99.90
12957;DHT22;6543;48.836;10.092;2023-05-10T11:35:42;14.90;99.90
12957;DHT22;6543;48.836;10.092;2023-05-10T11:38:10;15.20;99.90
12957;DHT22;6543;48.836;10.092;2023-05-10T11:40:38;15.50;99.90
12957;DHT22;6543;48.836;10.092;2023-05-10T11:43:05;15.50;99.90
12957;DHT22;6543;48.836;10.092;2023-05-10T11:45:33;14.90;99.90
12957;DHT22;6543;48.836;10.092;2023-05-10T11:48:02;14.90;99.90
12957;DHT22;6543;48.836;10.092;2023-05-10T11:50:29;14.90;99.90
12957;DHT22;6543;48.836;10.092;2023-05-10T11:52:57;15.20;99.90
12957;DHT22;6543;48.836;10.092;2023-05-10T11:55:24;15.60;99.90
12957;DHT22;6543;48.836;10.092;2023-05-10T11:57:54;15.30;99.90
12957;DHT22;6543;48.836;10.092;2023-05-10T12:00:21;15.20;99.90
12957;DHT22;6543;48.836;10.092;2023-05-10T12:02:48;15.50;99.90
12957;DHT22;6543;48.836;10.092;2023-05-10T12:05:17;15.50;99.90
12957;DHT22;6543;48.836;10.092;2023-05-10T12:07:43;15.50;99.90
12957;DHT22;6543;48.836;10.092;2023-05-10T12:10:12;15.60;99.90
12957;DHT22;6543;48.836;10.092;2023-05-10T12:12:41;15.60;99.90
12957;DHT22;6543;48.836;10.092;2023-05-10T12:15:12;15.80;99.90
12957;DHT22;6543;48.836;10.092;2023-05-10T12:17:44;15.60;99.90
12957;DHT22;6543;48.836;10.092;2023-05-10T12:20:17;15.70;99.90
12957;DHT22;6543;48.836;10.092;2023-05-10T12:22:46;15.80;99.90
12957;DHT22;6543;48.836;10.092;2023-05-10T12:25:13;15.50;99.90
12957;DHT22;6543;48.836;10.092;2023-05-10T12:27:40;15.70;99.90
12957;DHT22;6543;48.836;10.092;2023-05-10T12:30:08;15.80;99.90
12957;DHT22;6543;48.836;10.092;2023-05-10T12:32:39;15.60;99.90
12957;DHT22;6543;48.836;10.092;2023-05-10T12:35:06;15.20;99.90
12957;DHT22;6543;48.836;10.092;2023-05-10T12:37:35;15.30;99.90
12957;DHT22;6543;48.836;10.092;2023-05-10T12:40:06;15.20;99.90
12957;DHT22;6543;48.836;10.092;2023-05-10T12:42:34;15.10;99.90
12957;DHT22;6543;48.836;10.092;2023-05-10T12:45:02;14.80;99.90
12957;DHT22;6543;48.836;10.092;2023-05-10T12:47:30;14.40;99.90
12957;DHT22;6543;48.836;10.092;2023-05-10T12:49:56;14.10;99.90
12957;DHT22;6543;48.836;10.092;2023-05-10T12:52:23;14.10;99.90
12957;DHT22;6543;48.836;10.092;2023-05-10T12:54:52;13.90;99.90
12957;DHT22;6543;48.836;10.092;2023-05-10T12:57:20;13.70;99.90
12957;DHT22;6543;48.836;10.092;2023-05-10T12:59:47;13.70;99.90
12957;DHT22;6543;48.836;10.092;2023-05-10T13:02:14;13.70;99.90
12957;DHT22;6543;48.836;10.092;2023-05-10T13:04:43;13.70;99.90
12957;DHT22;6543;48.836;10.092;2023-05-10T13:07:10;13.80;99.90
12957;DHT22;6543;48.836;10.092;2023-05-10T13:09:37;13.90;99.90
12957;DHT22;6543;48.836;10.092;2023-05-10T13:12:05;14.20;99.90
12957;DHT22;6543;48.836;10.092;2023-05-10T13:14:32;14.10;99.90
12957;DHT22;6543;48.836;10.092;2023-05-10T13:16:59;13.90;99.90
12957;DHT22;6543;48.836;10.092;2023-05-10T13:19:26;13.70;99.90
12957;DHT22;6543;48.836;10.092;2023-05-10T13:21:53;13.80;99.90
12957;DHT22;6543;48.836;10.092;2023-05-10T13:24:20;13.80;99.90
12957;DHT22;6543;48.836;10.092;2023-05-10T13:26:47;13.70;99.90
12957;DHT22;6543;48.836;10.092;2023-05-10T13:29:15;13.80;99.90
12957;DHT22;6543;48.836;10.092;2023-05-10T13:31:43;13.90;99.90
12957;DHT22;6543;48.836;10.092;2023-05-10T13:34:10;13.70;99.90
12957;DHT22;6543;48.836;10.092;2023-05-10T13:36:37;13.80;99.90
12957;DHT22;6543;48.836;10.092;2023-05-10T13:39:05;13.70;99.90
12957;DHT22;6543;48.836;10.092;2023-05-10T13:41:31;13.80;99.90
12957;DHT22;6543;48.836;10.092;2023-05-10T13:43:58;13.90;99.90
12957;DHT22;6543;48.836;10.092;2023-05-10T13:46:27;13.80;99.90
12957;DHT22;6543;48.836;10.092;2023-05-10T13:48:54;13.40;99.90
12957;DHT22;6543;48.836;10.092;2023-05-10T13:51:20;13.40;99.90
12957;DHT22;6543;48.836;10.092;2023-05-10T13:53:47;13.40;99.90
12957;DHT22;6543;48.836;10.092;2023-05-10T13:56:14;13.60;99.90
12957;DHT22;6543;48.836;10.092;2023-05-10T13:58:41;13.60;99.90
12957;DHT22;6543;48.836;10.092;2023-05-10T14:01:08;13.70;99.90
12957;DHT22;6543;48.836;10.092;2023-05-10T14:03:39;13.60;99.90
12957;DHT22;6543;48.836;10.092;2023-05-10T14:06:07;13.60;99.90
12957;DHT22;6543;48.836;10.092;2023-05-10T14:08:35;13.70;99.90
12957;DHT22;6543;48.836;10.092;2023-05-10T14:11:03;13.70;99.90
12957;DHT22;6543;48.836;10.092;2023-05-10T14:13:30;14.10;99.90
12957;DHT22;6543;48.836;10.092;2023-05-10T14:15:57;14.30;99.90
12957;DHT22;6543;48.836;10.092;2023-05-10T14:18:26;14.10;99.90
12957;DHT22;6543;48.836;10.092;2023-05-10T14:20:54;14.00;99.90
12957;DHT22;6543;48.836;10.092;2023-05-10T14:23:21;14.20;99.90
12957;DHT22;6543;48.836;10.092;2023-05-10T14:25:50;14.20;99.90
12957;DHT22;6543;48.836;10.092;2023-05-10T14:28:17;14.10;99.90
12957;DHT22;6543;48.836;10.092;2023-05-10T14:30:45;14.10;99.90
12957;DHT22;6543;48.836;10.092;2023-05-10T14:33:14;14.10;99.90
12957;DHT22;6543;48.836;10.092;2023-05-10T14:35:40;14.00;99.90
12957;DHT22;6543;48.836;10.092;2023-05-10T14:38:09;13.80;99.90
12957;DHT22;6543;48.836;10.092;2023-05-10T14:40:36;14.30;99.90
12957;DHT22;6543;48.836;10.092;2023-05-10T14:43:03;14.20;99.90
12957;DHT22;6543;48.836;10.092;2023-05-10T14:45:30;13.90;99.90
12957;DHT22;6543;48.836;10.092;2023-05-10T14:47:57;14.00;99.90
12957;DHT22;6543;48.836;10.092;2023-05-10T14:50:24;14.00;99.90
12957;DHT22;6543;48.836;10.092;2023-05-10T14:52:51;14.10;99.90
12957;DHT22;6543;48.836;10.092;2023-05-10T14:55:20;14.30;99.90
12957;DHT22;6543;48.836;10.092;2023-05-10T14:57:47;14.20;99.90
12957;DHT22;6543;48.836;10.092;2023-05-10T15:00:16;14.20;99.90
12957;DHT22;6543;48.836;10.092;2023-05-10T15:02:44;13.90;99.90
12957;DHT22;6543;48.836;10.092;2023-05-10T15:05:14;14.10;99.90
12957;DHT22;6543;48.836;10.092;2023-05-10T15:07:41;14.10;99.90
12957;DHT22;6543;48.836;10.092;2023-05-10T15:10:09;14.00;99.90
12957;DHT22;6543;48.836;10.092;2023-05-10T15:12:37;14.30;99.90
12957;DHT22;6543;48.836;10.092;2023-05-10T15:15:07;14.20;99.90
12957;DHT22;6543;48.836;10.092;2023-05-10T15:17:37;14.40;99.90
12957;DHT22;6543;48.836;10.092;2023-05-10T15:20:05;14.10;99.90
12957;DHT22;6543;48.836;10.092;2023-05-10T15:22:33;14.20;99.90
12957;DHT22;6543;48.836;10.092;2023-05-10T15:25:01;14.20;99.90
12957;DHT22;6543;48.836;10.092;2023-05-10T15:27:28;14.30;99.90
12957;DHT22;6543;48.836;10.092;2023-05-10T15:29:56;14.30;99.90
12957;DHT22;6543;48.836;10.092;2023-05-10T15:32:24;14.40;99.90
12957;DHT22;6543;48.836;10.092;2023-05-10T15:34:51;14.40;99.90
12957;DHT22;6543;48.836;10.092;2023-05-10T15:37:18;14.40;99.90
12957;DHT22;6543;48.836;10.092;2023-05-10T15:39:45;14.60;99.90
12957;DHT22;6543;48.836;10.092;2023-05-10T15:42:12;14.60;99.90
12957;DHT22;6543;48.836;10.092;2023-05-10T15:44:39;14.70;99.90